Wausau Downtown Airport
KAUW : now visible

Airfield :











YOU CAN JOIN US ON...

 
LOGIN :

Register | Disclaimer

   EN    FR    IT 

 









Legend :    VFR   Marginal VFR   IFR   Intensive IFR   Very Intensive IFR
Visi :
Ceiling :
>= 8 km
>= 3000ft
5 to 8 km
1000 to 3000 ft
1500m to 5 km
500 to 1000 ft
800 to 1500m
200 to 500 ft
< 800m
< 200 ft
Symbols :   Thunderstorms  Fog  Heavy snow  Heavy precipitations  Wind > 20 kt







- Airport Elevation : 1201 ft


KAUW - Wausau Downtown

CURRENT METAR :
  • 181854Z AUTO 24011KT 10SM FEW025 26/20 A2972 RMK AO2 SLP061 T02560200

EXPIRED METARs :
  • 181754Z AUTO 21011KT 10SM CLR 26/19 A2973 RMK AO2 SLP062 60002 T02560194 10261 20206 56018
  • 181736Z AUTO 21010G17KT 10SM SCT025 26/19 A2973 RMK AO2 T02560194
  • 181654Z AUTO 21009KT 10SM BKN022 BKN028 24/20 A2974 RMK AO2 SLP068 T02440200
  • 181613Z AUTO 20008G17KT 10SM SCT021 BKN028 BKN080 24/20 A2975 RMK AO2 T02390200
  • 181602Z AUTO 21009KT 10SM FEW019 SCT023 BKN080 24/20 A2975 RMK AO2 T02390200

TAF KAUW
Valid from the 18 at 18:00 until the 19 at 18:00 UTC


181730Z 1818/1918 21010G18KT P6SM BKN025
FM190000 20004KT P6SM SCT030 BKN120
FM190400 VRB05KT P6SM SCT012 BKN120
FM190500 22006KT 5SM -SHRA BR VCTS BKN050CB
FM190900 VRB05KT 5SM BR OVC012
FM191600 16009KT P6SM BKN025
KZMP FIR / North America



MET'MAP, your aeronautical weather chart ! - Copyright ORBIFLY December 2007 - Disclaimer

ORBIFLY MET'MAP TEAM :

Programming & Development : Alexandra Zaïnal
Concept & Development : Baudouin d'Aumeries
Co-Development & Prog : Marc-Olivier Méhu
Technical & hardware support : Manuel Goepfert

Contact : metmap@orbifly.com




SOURCES & CREDITS :

   NOAA       Earth
Advisory